sensor_id;sensor_type;location;lat;lon;timestamp;P1;durP1;ratioP1;P2;durP2;ratioP2
79412;SDS011;68863;49.528;11.010;2023-04-06T00:00:45;7.28;;;2.30;;
79412;SDS011;68863;49.528;11.010;2023-04-06T00:01:45;6.93;;;2.13;;
79412;SDS011;68863;49.528;11.010;2023-04-06T00:02:46;4.78;;;1.73;;
79412;SDS011;68863;49.528;11.010;2023-04-06T00:03:47;4.30;;;1.77;;
79412;SDS011;68863;49.528;11.010;2023-04-06T00:04:47;6.25;;;2.40;;
79412;SDS011;68863;49.528;11.010;2023-04-06T00:05:47;6.13;;;1.97;;
79412;SDS011;68863;49.528;11.010;2023-04-06T00:06:48;6.90;;;2.03;;
79412;SDS011;68863;49.528;11.010;2023-04-06T00:07:48;6.97;;;1.90;;
79412;SDS011;68863;49.528;11.010;2023-04-06T00:08:49;5.82;;;2.15;;
79412;SDS011;68863;49.528;11.010;2023-04-06T00:09:49;4.97;;;1.83;;
79412;SDS011;68863;49.528;11.010;2023-04-06T00:10:49;5.35;;;1.55;;
79412;SDS011;68863;49.528;11.010;2023-04-06T00:11:50;5.03;;;2.00;;
79412;SDS011;68863;49.528;11.010;2023-04-06T00:12:50;5.57;;;2.13;;
79412;SDS011;68863;49.528;11.010;2023-04-06T00:13:50;5.97;;;1.67;;
79412;SDS011;68863;49.528;11.010;2023-04-06T00:14:51;5.85;;;2.03;;
79412;SDS011;68863;49.528;11.010;2023-04-06T00:15:51;4.70;;;2.05;;
79412;SDS011;68863;49.528;11.010;2023-04-06T00:16:51;5.65;;;2.22;;
79412;SDS011;68863;49.528;11.010;2023-04-06T00:17:52;6.33;;;1.90;;
79412;SDS011;68863;49.528;11.010;2023-04-06T00:18:52;4.72;;;1.80;;
79412;SDS011;68863;49.528;11.010;2023-04-06T00:19:52;7.00;;;2.40;;
79412;SDS011;68863;49.528;11.010;2023-04-06T00:20:52;6.75;;;1.83;;
79412;SDS011;68863;49.528;11.010;2023-04-06T00:21:53;6.20;;;1.88;;
79412;SDS011;68863;49.528;11.010;2023-04-06T00:22:53;4.90;;;1.83;;
79412;SDS011;68863;49.528;11.010;2023-04-06T00:23:54;6.65;;;2.22;;
79412;SDS011;68863;49.528;11.010;2023-04-06T00:24:54;7.40;;;2.17;;
79412;SDS011;68863;49.528;11.010;2023-04-06T00:25:55;5.83;;;1.93;;
79412;SDS011;68863;49.528;11.010;2023-04-06T00:26:55;5.80;;;2.10;;
79412;SDS011;68863;49.528;11.010;2023-04-06T00:27:56;5.22;;;2.28;;
79412;SDS011;68863;49.528;11.010;2023-04-06T00:28:56;7.78;;;2.50;;
79412;SDS011;68863;49.528;11.010;2023-04-06T00:29:58;5.35;;;2.10;;
79412;SDS011;68863;49.528;11.010;2023-04-06T00:30:58;5.47;;;1.90;;
79412;SDS011;68863;49.528;11.010;2023-04-06T00:31:58;6.03;;;2.07;;
79412;SDS011;68863;49.528;11.010;2023-04-06T00:32:59;5.90;;;2.28;;
79412;SDS011;68863;49.528;11.010;2023-04-06T00:34:00;6.60;;;2.30;;
79412;SDS011;68863;49.528;11.010;2023-04-06T00:35:02;7.93;;;2.57;;
79412;SDS011;68863;49.528;11.010;2023-04-06T00:36:03;7.40;;;2.20;;
79412;SDS011;68863;49.528;11.010;2023-04-06T00:37:03;6.45;;;2.65;;
79412;SDS011;68863;49.528;11.010;2023-04-06T00:38:03;6.40;;;1.70;;
79412;SDS011;68863;49.528;11.010;2023-04-06T00:39:04;5.25;;;2.10;;
79412;SDS011;68863;49.528;11.010;2023-04-06T00:40:04;6.27;;;2.40;;
79412;SDS011;68863;49.528;11.010;2023-04-06T00:41:05;5.80;;;2.20;;
79412;SDS011;68863;49.528;11.010;2023-04-06T00:42:07;5.38;;;2.17;;
79412;SDS011;68863;49.528;11.010;2023-04-06T00:43:13;7.05;;;2.25;;
79412;SDS011;68863;49.528;11.010;2023-04-06T00:44:14;6.78;;;2.38;;
79412;SDS011;68863;49.528;11.010;2023-04-06T00:45:15;6.60;;;2.20;;
79412;SDS011;68863;49.528;11.010;2023-04-06T00:46:15;7.18;;;2.53;;
79412;SDS011;68863;49.528;11.010;2023-04-06T00:47:15;7.00;;;2.53;;
79412;SDS011;68863;49.528;11.010;2023-04-06T00:48:16;6.55;;;2.78;;
79412;SDS011;68863;49.528;11.010;2023-04-06T00:49:16;6.05;;;2.13;;
79412;SDS011;68863;49.528;11.010;2023-04-06T00:50:17;5.50;;;2.35;;
79412;SDS011;68863;49.528;11.010;2023-04-06T00:51:17;5.10;;;1.85;;
79412;SDS011;68863;49.528;11.010;2023-04-06T00:52:17;5.70;;;2.10;;
79412;SDS011;68863;49.528;11.010;2023-04-06T00:53:18;5.80;;;2.40;;
79412;SDS011;68863;49.528;11.010;2023-04-06T00:54:18;6.35;;;2.25;;
79412;SDS011;68863;49.528;11.010;2023-04-06T00:55:18;6.38;;;2.47;;
79412;SDS011;68863;49.528;11.010;2023-04-06T00:56:19;6.95;;;2.47;;
79412;SDS011;68863;49.528;11.010;2023-04-06T00:57:19;5.38;;;1.88;;
79412;SDS011;68863;49.528;11.010;2023-04-06T00:58:20;5.38;;;1.88;;
79412;SDS011;68863;49.528;11.010;2023-04-06T00:59:20;5.72;;;2.08;;
79412;SDS011;68863;49.528;11.010;2023-04-06T01:00:21;5.47;;;2.05;;
79412;SDS011;68863;49.528;11.010;2023-04-06T01:01:21;6.93;;;1.83;;
79412;SDS011;68863;49.528;11.010;2023-04-06T01:02:23;4.78;;;1.88;;
79412;SDS011;68863;49.528;11.010;2023-04-06T01:03:25;7.07;;;1.77;;
79412;SDS011;68863;49.528;11.010;2023-04-06T01:04:26;6.57;;;1.90;;
79412;SDS011;68863;49.528;11.010;2023-04-06T01:05:26;5.95;;;1.83;;
79412;SDS011;68863;49.528;11.010;2023-04-06T01:06:27;6.75;;;2.08;;
79412;SDS011;68863;49.528;11.010;2023-04-06T01:07:27;5.75;;;2.00;;
79412;SDS011;68863;49.528;11.010;2023-04-06T01:08:28;6.47;;;2.15;;
79412;SDS011;68863;49.528;11.010;2023-04-06T01:09:28;5.93;;;2.10;;
79412;SDS011;68863;49.528;11.010;2023-04-06T01:10:29;6.05;;;1.75;;
79412;SDS011;68863;49.528;11.010;2023-04-06T01:11:30;4.95;;;1.77;;
79412;SDS011;68863;49.528;11.010;2023-04-06T01:12:31;5.53;;;2.22;;
79412;SDS011;68863;49.528;11.010;2023-04-06T01:13:31;5.80;;;2.13;;
79412;SDS011;68863;49.528;11.010;2023-04-06T01:14:32;6.40;;;2.05;;
79412;SDS011;68863;49.528;11.010;2023-04-06T01:15:32;5.47;;;2.30;;
79412;SDS011;68863;49.528;11.010;2023-04-06T01:16:35;5.43;;;1.90;;
79412;SDS011;68863;49.528;11.010;2023-04-06T01:17:36;5.20;;;1.77;;
79412;SDS011;68863;49.528;11.010;2023-04-06T01:18:36;5.43;;;1.83;;
79412;SDS011;68863;49.528;11.010;2023-04-06T01:19:37;6.97;;;2.38;;
79412;SDS011;68863;49.528;11.010;2023-04-06T01:20:38;6.13;;;1.80;;
79412;SDS011;68863;49.528;11.010;2023-04-06T01:21:38;6.80;;;2.33;;
79412;SDS011;68863;49.528;11.010;2023-04-06T01:22:39;4.57;;;1.92;;
79412;SDS011;68863;49.528;11.010;2023-04-06T01:23:40;6.63;;;2.10;;
79412;SDS011;68863;49.528;11.010;2023-04-06T01:24:40;6.70;;;1.88;;
79412;SDS011;68863;49.528;11.010;2023-04-06T01:25:40;7.03;;;1.90;;
79412;SDS011;68863;49.528;11.010;2023-04-06T01:26:40;5.43;;;1.90;;
79412;SDS011;68863;49.528;11.010;2023-04-06T01:27:40;6.30;;;2.07;;
79412;SDS011;68863;49.528;11.010;2023-04-06T01:28:41;5.45;;;1.80;;
79412;SDS011;68863;49.528;11.010;2023-04-06T01:29:41;4.45;;;1.85;;
79412;SDS011;68863;49.528;11.010;2023-04-06T01:30:42;5.65;;;1.80;;
79412;SDS011;68863;49.528;11.010;2023-04-06T01:31:43;6.07;;;2.20;;
79412;SDS011;68863;49.528;11.010;2023-04-06T01:32:43;6.03;;;1.97;;
79412;SDS011;68863;49.528;11.010;2023-04-06T01:33:43;4.93;;;2.08;;
79412;SDS011;68863;49.528;11.010;2023-04-06T01:34:44;5.70;;;1.75;;
79412;SDS011;68863;49.528;11.010;2023-04-06T01:35:44;5.28;;;1.83;;
79412;SDS011;68863;49.528;11.010;2023-04-06T01:36:44;6.87;;;2.33;;
79412;SDS011;68863;49.528;11.010;2023-04-06T01:37:45;5.90;;;2.00;;
79412;SDS011;68863;49.528;11.010;2023-04-06T01:38:45;6.72;;;2.05;;
79412;SDS011;68863;49.528;11.010;2023-04-06T01:39:46;5.65;;;2.17;;
79412;SDS011;68863;49.528;11.010;2023-04-06T01:40:46;5.57;;;1.75;;
79412;SDS011;68863;49.528;11.010;2023-04-06T01:41:46;5.23;;;1.80;;
79412;SDS011;68863;49.528;11.010;2023-04-06T01:42:49;6.57;;;1.95;;
79412;SDS011;68863;49.528;11.010;2023-04-06T01:43:50;4.83;;;1.80;;
79412;SDS011;68863;49.528;11.010;2023-04-06T01:44:54;5.20;;;1.90;;
79412;SDS011;68863;49.528;11.010;2023-04-06T01:45:54;6.23;;;2.10;;
79412;SDS011;68863;49.528;11.010;2023-04-06T01:46:55;4.63;;;2.05;;
79412;SDS011;68863;49.528;11.010;2023-04-06T01:47:56;6.15;;;2.15;;
79412;SDS011;68863;49.528;11.010;2023-04-06T01:48:56;5.50;;;1.90;;
79412;SDS011;68863;49.528;11.010;2023-04-06T01:49:56;4.75;;;1.60;;
79412;SDS011;68863;49.528;11.010;2023-04-06T01:50:57;5.78;;;1.83;;
79412;SDS011;68863;49.528;11.010;2023-04-06T01:51:57;5.23;;;1.90;;
79412;SDS011;68863;49.528;11.010;2023-04-06T01:52:57;5.78;;;2.10;;
79412;SDS011;68863;49.528;11.010;2023-04-06T01:53:57;5.53;;;1.77;;
79412;SDS011;68863;49.528;11.010;2023-04-06T01:54:58;6.63;;;1.97;;
79412;SDS011;68863;49.528;11.010;2023-04-06T01:55:58;5.18;;;1.77;;
79412;SDS011;68863;49.528;11.010;2023-04-06T01:56:58;4.78;;;1.80;;
79412;SDS011;68863;49.528;11.010;2023-04-06T01:57:59;4.97;;;1.60;;
79412;SDS011;68863;49.528;11.010;2023-04-06T01:58:59;6.22;;;1.90;;
79412;SDS011;68863;49.528;11.010;2023-04-06T01:59:59;6.18;;;2.03;;
79412;SDS011;68863;49.528;11.010;2023-04-06T02:01:00;5.03;;;1.88;;
79412;SDS011;68863;49.528;11.010;2023-04-06T02:02:00;6.50;;;1.92;;
79412;SDS011;68863;49.528;11.010;2023-04-06T02:03:00;7.45;;;1.95;;
79412;SDS011;68863;49.528;11.010;2023-04-06T02:04:01;5.18;;;1.85;;
79412;SDS011;68863;49.528;11.010;2023-04-06T02:05:01;6.82;;;1.80;;
79412;SDS011;68863;49.528;11.010;2023-04-06T02:06:01;5.15;;;1.77;;
79412;SDS011;68863;49.528;11.010;2023-04-06T02:07:02;5.35;;;1.95;;
79412;SDS011;68863;49.528;11.010;2023-04-06T02:08:02;7.50;;;2.43;;
79412;SDS011;68863;49.528;11.010;2023-04-06T02:09:02;5.38;;;2.10;;
79412;SDS011;68863;49.528;11.010;2023-04-06T02:10:03;5.97;;;1.60;;
79412;SDS011;68863;49.528;11.010;2023-04-06T02:11:03;5.35;;;1.95;;
79412;SDS011;68863;49.528;11.010;2023-04-06T02:12:04;4.97;;;1.75;;
79412;SDS011;68863;49.528;11.010;2023-04-06T02:13:04;6.65;;;1.98;;
79412;SDS011;68863;49.528;11.010;2023-04-06T02:14:04;5.75;;;2.00;;
79412;SDS011;68863;49.528;11.010;2023-04-06T02:15:05;6.25;;;1.67;;
79412;SDS011;68863;49.528;11.010;2023-04-06T02:16:05;5.65;;;1.65;;
79412;SDS011;68863;49.528;11.010;2023-04-06T02:17:06;5.22;;;1.75;;
79412;SDS011;68863;49.528;11.010;2023-04-06T02:18:06;5.30;;;1.45;;
79412;SDS011;68863;49.528;11.010;2023-04-06T02:19:06;5.57;;;1.80;;
79412;SDS011;68863;49.528;11.010;2023-04-06T02:20:07;5.30;;;1.73;;
79412;SDS011;68863;49.528;11.010;2023-04-06T02:21:07;5.32;;;1.33;;
79412;SDS011;68863;49.528;11.010;2023-04-06T02:22:09;4.78;;;1.65;;
79412;SDS011;68863;49.528;11.010;2023-04-06T02:23:09;5.30;;;1.90;;
79412;SDS011;68863;49.528;11.010;2023-04-06T02:24:09;4.70;;;1.85;;
79412;SDS011;68863;49.528;11.010;2023-04-06T02:25:10;5.13;;;1.90;;
79412;SDS011;68863;49.528;11.010;2023-04-06T02:26:10;5.10;;;1.60;;
79412;SDS011;68863;49.528;11.010;2023-04-06T02:27:11;8.73;;;2.05;;
79412;SDS011;68863;49.528;11.010;2023-04-06T02:28:11;5.00;;;1.53;;
79412;SDS011;68863;49.528;11.010;2023-04-06T02:29:11;6.88;;;2.40;;
79412;SDS011;68863;49.528;11.010;2023-04-06T02:30:12;6.20;;;1.80;;
79412;SDS011;68863;49.528;11.010;2023-04-06T02:31:12;4.65;;;1.90;;
79412;SDS011;68863;49.528;11.010;2023-04-06T02:32:14;4.88;;;1.85;;
79412;SDS011;68863;49.528;11.010;2023-04-06T02:33:14;3.83;;;1.70;;
79412;SDS011;68863;49.528;11.010;2023-04-06T02:34:15;5.85;;;2.17;;
79412;SDS011;68863;49.528;11.010;2023-04-06T02:35:17;7.18;;;1.85;;
79412;SDS011;68863;49.528;11.010;2023-04-06T02:36:18;4.82;;;2.03;;
79412;SDS011;68863;49.528;11.010;2023-04-06T02:37:18;5.97;;;1.98;;
79412;SDS011;68863;49.528;11.010;2023-04-06T02:38:18;5.82;;;1.70;;
79412;SDS011;68863;49.528;11.010;2023-04-06T02:39:18;5.67;;;1.90;;
79412;SDS011;68863;49.528;11.010;2023-04-06T02:40:19;6.05;;;2.63;;
79412;SDS011;68863;49.528;11.010;2023-04-06T02:41:19;5.35;;;1.70;;
79412;SDS011;68863;49.528;11.010;2023-04-06T02:42:20;6.97;;;2.30;;
79412;SDS011;68863;49.528;11.010;2023-04-06T02:43:20;5.50;;;1.85;;
79412;SDS011;68863;49.528;11.010;2023-04-06T02:44:20;7.20;;;2.33;;
79412;SDS011;68863;49.528;11.010;2023-04-06T02:45:20;6.03;;;1.95;;
79412;SDS011;68863;49.528;11.010;2023-04-06T02:46:21;4.45;;;1.52;;
79412;SDS011;68863;49.528;11.010;2023-04-06T02:47:21;6.65;;;2.08;;
79412;SDS011;68863;49.528;11.010;2023-04-06T02:48:21;5.90;;;1.90;;
79412;SDS011;68863;49.528;11.010;2023-04-06T02:49:22;6.00;;;1.80;;
79412;SDS011;68863;49.528;11.010;2023-04-06T02:50:22;5.80;;;2.05;;
79412;SDS011;68863;49.528;11.010;2023-04-06T02:51:22;7.10;;;2.00;;
79412;SDS011;68863;49.528;11.010;2023-04-06T02:52:22;5.07;;;1.80;;
79412;SDS011;68863;49.528;11.010;2023-04-06T02:53:23;5.50;;;1.65;;
79412;SDS011;68863;49.528;11.010;2023-04-06T02:54:23;4.63;;;2.10;;
79412;SDS011;68863;49.528;11.010;2023-04-06T02:55:23;4.95;;;1.90;;
79412;SDS011;68863;49.528;11.010;2023-04-06T02:56:23;6.18;;;2.00;;
79412;SDS011;68863;49.528;11.010;2023-04-06T02:57:24;5.75;;;2.00;;
79412;SDS011;68863;49.528;11.010;2023-04-06T02:58:25;8.05;;;2.10;;
79412;SDS011;68863;49.528;11.010;2023-04-06T02:59:25;5.78;;;2.20;;
79412;SDS011;68863;49.528;11.010;2023-04-06T03:00:26;8.57;;;2.40;;
79412;SDS011;68863;49.528;11.010;2023-04-06T03:01:26;5.40;;;2.25;;
79412;SDS011;68863;49.528;11.010;2023-04-06T03:02:26;5.67;;;2.03;;
79412;SDS011;68863;49.528;11.010;2023-04-06T03:03:27;6.35;;;2.10;;
79412;SDS011;68863;49.528;11.010;2023-04-06T03:04:27;5.97;;;1.75;;
79412;SDS011;68863;49.528;11.010;2023-04-06T03:05:27;5.88;;;1.98;;
79412;SDS011;68863;49.528;11.010;2023-04-06T03:06:27;6.65;;;2.40;;
79412;SDS011;68863;49.528;11.010;2023-04-06T03:07:28;5.60;;;2.40;;
79412;SDS011;68863;49.528;11.010;2023-04-06T03:08:28;6.45;;;1.95;;
79412;SDS011;68863;49.528;11.010;2023-04-06T03:09:28;6.35;;;2.00;;
79412;SDS011;68863;49.528;11.010;2023-04-06T03:10:29;5.88;;;1.90;;
79412;SDS011;68863;49.528;11.010;2023-04-06T03:11:29;6.55;;;2.03;;
79412;SDS011;68863;49.528;11.010;2023-04-06T03:12:30;5.93;;;2.17;;
79412;SDS011;68863;49.528;11.010;2023-04-06T03:13:30;6.30;;;2.38;;
79412;SDS011;68863;49.528;11.010;2023-04-06T03:14:30;5.80;;;2.10;;
79412;SDS011;68863;49.528;11.010;2023-04-06T03:15:31;5.07;;;1.90;;
79412;SDS011;68863;49.528;11.010;2023-04-06T03:16:31;5.60;;;2.03;;
79412;SDS011;68863;49.528;11.010;2023-04-06T03:17:31;5.50;;;2.10;;
79412;SDS011;68863;49.528;11.010;2023-04-06T03:18:31;5.13;;;2.03;;
79412;SDS011;68863;49.528;11.010;2023-04-06T03:19:32;8.38;;;2.10;;
79412;SDS011;68863;49.528;11.010;2023-04-06T03:20:32;8.93;;;2.40;;
79412;SDS011;68863;49.528;11.010;2023-04-06T03:21:33;5.97;;;2.17;;
79412;SDS011;68863;49.528;11.010;2023-04-06T03:22:33;6.38;;;2.03;;
79412;SDS011;68863;49.528;11.010;2023-04-06T03:23:33;5.77;;;2.50;;
79412;SDS011;68863;49.528;11.010;2023-04-06T03:24:33;6.63;;;2.10;;
79412;SDS011;68863;49.528;11.010;2023-04-06T03:25:33;6.28;;;2.15;;
79412;SDS011;68863;49.528;11.010;2023-04-06T03:26:34;6.13;;;2.13;;
79412;SDS011;68863;49.528;11.010;2023-04-06T03:27:34;5.63;;;1.85;;
79412;SDS011;68863;49.528;11.010;2023-04-06T03:28:34;7.82;;;2.28;;
79412;SDS011;68863;49.528;11.010;2023-04-06T03:29:35;4.77;;;1.80;;
79412;SDS011;68863;49.528;11.010;2023-04-06T03:30:35;5.28;;;2.00;;
79412;SDS011;68863;49.528;11.010;2023-04-06T03:31:35;7.17;;;1.93;;
79412;SDS011;68863;49.528;11.010;2023-04-06T03:32:36;6.57;;;2.10;;
79412;SDS011;68863;49.528;11.010;2023-04-06T03:33:36;6.15;;;2.20;;
79412;SDS011;68863;49.528;11.010;2023-04-06T03:34:37;7.00;;;2.05;;
79412;SDS011;68863;49.528;11.010;2023-04-06T03:35:38;5.07;;;2.10;;
79412;SDS011;68863;49.528;11.010;2023-04-06T03:36:38;6.20;;;2.50;;
79412;SDS011;68863;49.528;11.010;2023-04-06T03:37:38;5.78;;;2.20;;
79412;SDS011;68863;49.528;11.010;2023-04-06T03:38:38;9.25;;;2.55;;
79412;SDS011;68863;49.528;11.010;2023-04-06T03:39:39;5.80;;;2.55;;
79412;SDS011;68863;49.528;11.010;2023-04-06T03:40:39;7.60;;;2.13;;
79412;SDS011;68863;49.528;11.010;2023-04-06T03:41:39;7.05;;;2.20;;
79412;SDS011;68863;49.528;11.010;2023-04-06T03:42:40;7.87;;;2.40;;
79412;SDS011;68863;49.528;11.010;2023-04-06T03:43:40;5.20;;;2.00;;
79412;SDS011;68863;49.528;11.010;2023-04-06T03:44:40;6.15;;;2.35;;
79412;SDS011;68863;49.528;11.010;2023-04-06T03:45:40;5.97;;;2.10;;
79412;SDS011;68863;49.528;11.010;2023-04-06T03:46:41;6.63;;;1.87;;
79412;SDS011;68863;49.528;11.010;2023-04-06T03:47:41;5.97;;;2.10;;
79412;SDS011;68863;49.528;11.010;2023-04-06T03:48:41;5.65;;;2.10;;
79412;SDS011;68863;49.528;11.010;2023-04-06T03:49:41;9.85;;;2.55;;
79412;SDS011;68863;49.528;11.010;2023-04-06T03:50:42;5.18;;;2.00;;
79412;SDS011;68863;49.528;11.010;2023-04-06T03:51:42;5.60;;;2.30;;
79412;SDS011;68863;49.528;11.010;2023-04-06T03:52:42;5.50;;;2.07;;
79412;SDS011;68863;49.528;11.010;2023-04-06T03:53:42;4.93;;;1.90;;
79412;SDS011;68863;49.528;11.010;2023-04-06T03:54:43;5.27;;;1.73;;
79412;SDS011;68863;49.528;11.010;2023-04-06T03:55:43;5.47;;;1.93;;
79412;SDS011;68863;49.528;11.010;2023-04-06T03:56:43;6.63;;;2.30;;
79412;SDS011;68863;49.528;11.010;2023-04-06T03:57:43;4.83;;;1.97;;
79412;SDS011;68863;49.528;11.010;2023-04-06T03:58:44;5.47;;;1.90;;
79412;SDS011;68863;49.528;11.010;2023-04-06T03:59:50;6.85;;;2.13;;
79412;SDS011;68863;49.528;11.010;2023-04-06T04:00:50;5.82;;;1.80;;
79412;SDS011;68863;49.528;11.010;2023-04-06T04:01:50;9.67;;;2.60;;
79412;SDS011;68863;49.528;11.010;2023-04-06T04:02:51;5.03;;;2.08;;
79412;SDS011;68863;49.528;11.010;2023-04-06T04:03:51;6.93;;;2.17;;
79412;SDS011;68863;49.528;11.010;2023-04-06T04:04:52;6.32;;;2.20;;
79412;SDS011;68863;49.528;11.010;2023-04-06T04:05:52;6.90;;;2.40;;
79412;SDS011;68863;49.528;11.010;2023-04-06T04:06:52;4.97;;;2.28;;
79412;SDS011;68863;49.528;11.010;2023-04-06T04:07:53;6.32;;;2.10;;
79412;SDS011;68863;49.528;11.010;2023-04-06T04:08:53;5.70;;;2.20;;
79412;SDS011;68863;49.528;11.010;2023-04-06T04:09:53;8.03;;;2.20;;
79412;SDS011;68863;49.528;11.010;2023-04-06T04:10:53;8.10;;;2.53;;
79412;SDS011;68863;49.528;11.010;2023-04-06T04:11:54;6.80;;;2.10;;
79412;SDS011;68863;49.528;11.010;2023-04-06T04:12:54;5.28;;;1.92;;
79412;SDS011;68863;49.528;11.010;2023-04-06T04:13:54;5.85;;;2.22;;
79412;SDS011;68863;49.528;11.010;2023-04-06T04:14:55;6.43;;;1.77;;
79412;SDS011;68863;49.528;11.010;2023-04-06T04:15:55;6.27;;;2.33;;
79412;SDS011;68863;49.528;11.010;2023-04-06T04:16:56;5.18;;;2.10;;
79412;SDS011;68863;49.528;11.010;2023-04-06T04:17:56;5.20;;;2.13;;
79412;SDS011;68863;49.528;11.010;2023-04-06T04:18:56;5.20;;;2.00;;
79412;SDS011;68863;49.528;11.010;2023-04-06T04:19:58;6.68;;;2.30;;
79412;SDS011;68863;49.528;11.010;2023-04-06T04:20:58;6.27;;;2.10;;
79412;SDS011;68863;49.528;11.010;2023-04-06T04:21:59;6.03;;;2.38;;
79412;SDS011;68863;49.528;11.010;2023-04-06T04:22:59;6.28;;;2.50;;
79412;SDS011;68863;49.528;11.010;2023-04-06T04:23:59;7.22;;;2.50;;
79412;SDS011;68863;49.528;11.010;2023-04-06T04:25:00;6.40;;;2.50;;
79412;SDS011;68863;49.528;11.010;2023-04-06T04:26:00;5.97;;;2.40;;
79412;SDS011;68863;49.528;11.010;2023-04-06T04:27:00;5.28;;;2.10;;
79412;SDS011;68863;49.528;11.010;2023-04-06T04:28:01;6.83;;;2.30;;
79412;SDS011;68863;49.528;11.010;2023-04-06T04:29:01;6.05;;;2.33;;
79412;SDS011;68863;49.528;11.010;2023-04-06T04:30:02;9.68;;;2.92;;
79412;SDS011;68863;49.528;11.010;2023-04-06T04:31:02;6.28;;;2.13;;
79412;SDS011;68863;49.528;11.010;2023-04-06T04:32:02;6.80;;;1.88;;
79412;SDS011;68863;49.528;11.010;2023-04-06T04:33:03;10.13;;;2.92;;
79412;SDS011;68863;49.528;11.010;2023-04-06T04:34:03;9.30;;;3.63;;
79412;SDS011;68863;49.528;11.010;2023-04-06T04:35:04;13.18;;;5.13;;
79412;SDS011;68863;49.528;11.010;2023-04-06T04:36:04;13.32;;;5.85;;
79412;SDS011;68863;49.528;11.010;2023-04-06T04:37:05;10.27;;;4.95;;
79412;SDS011;68863;49.528;11.010;2023-04-06T04:38:06;9.02;;;3.60;;
79412;SDS011;68863;49.528;11.010;2023-04-06T04:39:06;9.50;;;4.10;;
79412;SDS011;68863;49.528;11.010;2023-04-06T04:40:06;10.02;;;4.18;;
79412;SDS011;68863;49.528;11.010;2023-04-06T04:41:07;9.88;;;3.50;;
79412;SDS011;68863;49.528;11.010;2023-04-06T04:42:07;8.80;;;3.00;;
79412;SDS011;68863;49.528;11.010;2023-04-06T04:43:08;10.30;;;3.88;;
79412;SDS011;68863;49.528;11.010;2023-04-06T04:44:08;9.23;;;4.40;;
79412;SDS011;68863;49.528;11.010;2023-04-06T04:45:09;11.77;;;4.68;;
79412;SDS011;68863;49.528;11.010;2023-04-06T04:46:10;8.55;;;4.28;;
79412;SDS011;68863;49.528;11.010;2023-04-06T04:47:15;9.18;;;3.88;;
79412;SDS011;68863;49.528;11.010;2023-04-06T04:48:21;6.55;;;2.60;;
79412;SDS011;68863;49.528;11.010;2023-04-06T04:49:26;5.97;;;2.50;;
79412;SDS011;68863;49.528;11.010;2023-04-06T04:50:30;9.55;;;2.58;;
79412;SDS011;68863;49.528;11.010;2023-04-06T04:51:30;8.82;;;2.70;;
79412;SDS011;68863;49.528;11.010;2023-04-06T04:52:32;6.72;;;2.50;;
79412;SDS011;68863;49.528;11.010;2023-04-06T04:53:32;6.00;;;2.97;;
79412;SDS011;68863;49.528;11.010;2023-04-06T04:54:33;8.23;;;3.40;;
79412;SDS011;68863;49.528;11.010;2023-04-06T04:55:33;9.57;;;3.40;;
79412;SDS011;68863;49.528;11.010;2023-04-06T04:56:33;8.13;;;3.25;;
79412;SDS011;68863;49.528;11.010;2023-04-06T04:57:33;7.40;;;3.13;;
79412;SDS011;68863;49.528;11.010;2023-04-06T04:58:34;8.20;;;3.15;;
79412;SDS011;68863;49.528;11.010;2023-04-06T04:59:34;8.38;;;3.38;;
79412;SDS011;68863;49.528;11.010;2023-04-06T05:00:35;8.20;;;3.35;;
79412;SDS011;68863;49.528;11.010;2023-04-06T05:01:35;6.55;;;2.50;;
79412;SDS011;68863;49.528;11.010;2023-04-06T05:02:35;7.38;;;2.80;;
79412;SDS011;68863;49.528;11.010;2023-04-06T05:03:36;8.57;;;3.17;;
79412;SDS011;68863;49.528;11.010;2023-04-06T05:04:38;7.45;;;3.00;;
79412;SDS011;68863;49.528;11.010;2023-04-06T05:05:38;7.53;;;2.90;;
79412;SDS011;68863;49.528;11.010;2023-04-06T05:06:39;7.15;;;3.08;;
79412;SDS011;68863;49.528;11.010;2023-04-06T05:07:39;7.22;;;3.20;;
79412;SDS011;68863;49.528;11.010;2023-04-06T05:08:40;7.15;;;3.00;;
79412;SDS011;68863;49.528;11.010;2023-04-06T05:09:41;6.70;;;3.00;;
79412;SDS011;68863;49.528;11.010;2023-04-06T05:10:41;7.75;;;2.65;;
79412;SDS011;68863;49.528;11.010;2023-04-06T05:11:42;6.97;;;2.72;;
79412;SDS011;68863;49.528;11.010;2023-04-06T05:12:42;6.28;;;2.80;;
79412;SDS011;68863;49.528;11.010;2023-04-06T05:13:43;8.43;;;3.20;;
79412;SDS011;68863;49.528;11.010;2023-04-06T05:14:43;8.75;;;3.30;;
79412;SDS011;68863;49.528;11.010;2023-04-06T05:15:43;8.30;;;3.35;;
79412;SDS011;68863;49.528;11.010;2023-04-06T05:16:44;8.98;;;3.03;;
79412;SDS011;68863;49.528;11.010;2023-04-06T05:17:44;7.97;;;3.03;;
79412;SDS011;68863;49.528;11.010;2023-04-06T05:18:45;8.32;;;2.65;;
79412;SDS011;68863;49.528;11.010;2023-04-06T05:19:45;11.90;;;3.33;;
79412;SDS011;68863;49.528;11.010;2023-04-06T05:20:47;7.32;;;3.10;;
79412;SDS011;68863;49.528;11.010;2023-04-06T05:21:48;8.02;;;3.38;;
79412;SDS011;68863;49.528;11.010;2023-04-06T05:22:48;6.87;;;3.07;;
79412;SDS011;68863;49.528;11.010;2023-04-06T05:23:48;6.30;;;2.77;;
79412;SDS011;68863;49.528;11.010;2023-04-06T05:24:48;6.45;;;2.58;;
79412;SDS011;68863;49.528;11.010;2023-04-06T05:25:51;7.30;;;2.88;;
79412;SDS011;68863;49.528;11.010;2023-04-06T05:26:52;7.15;;;3.22;;
79412;SDS011;68863;49.528;11.010;2023-04-06T05:27:52;7.32;;;3.22;;
79412;SDS011;68863;49.528;11.010;2023-04-06T05:28:52;9.23;;;3.15;;
79412;SDS011;68863;49.528;11.010;2023-04-06T05:29:54;9.20;;;3.20;;
79412;SDS011;68863;49.528;11.010;2023-04-06T05:30:54;8.13;;;3.53;;
79412;SDS011;68863;49.528;11.010;2023-04-06T05:31:55;9.07;;;3.33;;
79412;SDS011;68863;49.528;11.010;2023-04-06T05:32:55;8.18;;;3.08;;
79412;SDS011;68863;49.528;11.010;2023-04-06T05:33:56;9.30;;;3.20;;
79412;SDS011;68863;49.528;11.010;2023-04-06T05:34:56;9.68;;;3.15;;
79412;SDS011;68863;49.528;11.010;2023-04-06T05:35:57;7.88;;;3.03;;
79412;SDS011;68863;49.528;11.010;2023-04-06T05:36:57;7.90;;;3.20;;
79412;SDS011;68863;49.528;11.010;2023-04-06T05:37:57;8.07;;;3.60;;
79412;SDS011;68863;49.528;11.010;2023-04-06T05:38:58;9.70;;;3.30;;
79412;SDS011;68863;49.528;11.010;2023-04-06T05:39:58;9.25;;;3.08;;
79412;SDS011;68863;49.528;11.010;2023-04-06T05:40:58;9.73;;;3.67;;
79412;SDS011;68863;49.528;11.010;2023-04-06T05:42:01;8.13;;;3.13;;
79412;SDS011;68863;49.528;11.010;2023-04-06T05:43:03;10.82;;;4.53;;
79412;SDS011;68863;49.528;11.010;2023-04-06T05:44:04;11.98;;;4.93;;
79412;SDS011;68863;49.528;11.010;2023-04-06T05:45:05;11.43;;;4.57;;
79412;SDS011;68863;49.528;11.010;2023-04-06T05:46:06;10.98;;;4.57;;
79412;SDS011;68863;49.528;11.010;2023-04-06T05:47:06;14.33;;;4.60;;
79412;SDS011;68863;49.528;11.010;2023-04-06T05:48:06;10.35;;;4.38;;
79412;SDS011;68863;49.528;11.010;2023-04-06T05:49:06;10.50;;;3.90;;
79412;SDS011;68863;49.528;11.010;2023-04-06T05:50:07;9.55;;;3.90;;
79412;SDS011;68863;49.528;11.010;2023-04-06T05:51:07;9.65;;;3.65;;
79412;SDS011;68863;49.528;11.010;2023-04-06T05:52:08;12.00;;;4.03;;
79412;SDS011;68863;49.528;11.010;2023-04-06T05:53:10;11.55;;;4.32;;
79412;SDS011;68863;49.528;11.010;2023-04-06T05:54:10;10.50;;;4.43;;
79412;SDS011;68863;49.528;11.010;2023-04-06T05:55:10;12.07;;;4.28;;
79412;SDS011;68863;49.528;11.010;2023-04-06T05:56:11;11.80;;;4.68;;
79412;SDS011;68863;49.528;11.010;2023-04-06T05:57:11;10.47;;;4.10;;
79412;SDS011;68863;49.528;11.010;2023-04-06T05:58:11;10.53;;;3.93;;
79412;SDS011;68863;49.528;11.010;2023-04-06T05:59:12;10.30;;;4.82;;